Alyeska Resort
Max's Hourly Weather Roundup
ALYESKA_MAX 9/29/2014
Click Here for Graph

        DATE  TIME   Air  Wind  Wind  Wind  BATT   Rel
                    Temp   Spd   Dir  Gust  Volt  Hum%
                      F   MPH   AVG   MPH   AVG   AVG

   9/29/2014 21:00    32    11          23 13.00    86
   9/29/2014 20:00    31    13   288    27 13.13    95
   9/29/2014 19:00    31    12   262    34 13.36    97
   9/29/2014 18:00    32    14   267    29 13.80    87
   9/29/2014 17:00    32    15   275    31 13.71    91
   9/29/2014 16:00    33    21   247    39 13.65    86
   9/29/2014 15:00    35    20   215    35 13.56    80
   9/29/2014 14:00    34    23   224    37 13.54    77
   9/29/2014 13:00    35    13   224    26 13.52    71
   9/29/2014 12:00    36     4   235    16 13.53    69
   9/29/2014 11:00    35     6   278    13 13.55    73
   9/29/2014 10:00    34     8   288    14 13.57    74
   9/29/2014 09:00    34    10          15 12.76    74
   9/29/2014 08:00    35     9          15 12.74    72
   9/29/2014 07:00    35     8   285    15 12.74    69
   9/29/2014 06:00    36     5   264    10 12.75    67
   9/29/2014 05:00    36    10          14 12.77    68
   9/29/2014 04:00    36    11          18 12.79    68
   9/29/2014 03:00    36    10          18 12.81    66
   9/29/2014 02:00    36    11          19 12.84    65
   9/29/2014 01:00    38     6   294    13 12.87    62
   9/28/2014 24:00    39     5   274    11 12.91    59
   9/28/2014 23:00    40     7   280    16 12.94    58
   9/28/2014 22:00    40     6   214    13 13.00    61


Click Here for Graph